Bridgeport, New Jersey
Current Conditions -  °F | °C
As of 10:24 PM on Monday 26 Jan 2015 (Local Time) from KPHL Reporting Station
Light Snow Light Snow  
Wind Chill: 16°   Ceiling: 1800
Heat Index: 28°   Visibility: 4mi
Dew Point: 23°   Wind: 16mph
Humidity: 81%   Direction: 40°NE
Pressure: 29.73"   Gusts: 29mph
Location:  39.8°N, 75.35°W
Report Text: KPHL 270324Z 04014G25KT 4SM -SN FEW013 BKN018 OVC028 M02/M05 A2973 RMK AO2 PK WND 05027/0308 P0000 T10221050
Loading
Personal Weather Stations






























Interactive Weather Map New forecast layout! Learn more

10-Day Weather Forecast

Advertisements
Track Severe Weather on mobile